Terminal Aerodrome Forecast
Issued by NWS

Home | Current Version | Previous Version | Text Only | Print | Product List | Glossary On
Versions: 1 2 3 4 5 6 7 8 9 10 11 12 13 14 15 16 17 18 19 20 21 22 23 24 25 26 27 28 29 30 31 32 33 34 35
000
FTUS45 KTWC 180500
TAFOLS
TAF
KOLS 180532Z 1806/1906 VRB03KT P6SM FEW020 SCT030 OVC060
      TEMPO 1806/1808 SCT020 BKN028 OVC060
     FM180900 VRB03KT P6SM FEW025 SCT040 BKN100
     FM181500 23010KT P6SM -SHRA BKN030 OVC060=

USA.gov is the U.S. government's official web portal to all federal, state and local government web resources and services.